Time;durP1;ratioP1;P1;durP2;ratioP2;P2;SDS_P1;SDS_P2;PMS_P1;PMS_P2;Temp;Humidity;BMP_temperature;BMP_pressure;BME280_temperature;BME280_humidity;BME280_pressure;Samples;Min_cycle;Max_cycle;Signal;HPM_P1;HPM_P2
2021/05/20 00:00:53;;;;;;;11.60;10.70;;;7.50;82.70;;;;;;5279427;28;20096;-76
2021/05/20 00:03:25;;;;;;;11.80;10.70;;;7.50;82.60;;;;;;5284340;28;20510;-76
2021/05/20 00:05:57;;;;;;;11.52;10.65;;;7.50;83.00;;;;;;5280515;28;20100;-76
2021/05/20 00:08:29;;;;;;;11.75;10.85;;;7.50;82.70;;;;;;5280547;28;20040;-77
2021/05/20 00:11:01;;;;;;;11.88;10.88;;;7.50;82.80;;;;;;5262207;28;20044;-77
2021/05/20 00:13:33;;;;;;;11.40;10.50;;;7.50;83.10;;;;;;5279370;28;20070;-77
2021/05/20 00:16:05;;;;;;;11.20;10.40;;;7.50;82.90;;;;;;5278384;28;20469;-77
2021/05/20 00:18:36;;;;;;;11.40;10.50;;;7.50;82.50;;;;;;5281444;28;20414;-77
2021/05/20 00:21:08;;;;;;;11.60;10.70;;;7.50;82.70;;;;;;5276192;28;20039;-77
2021/05/20 00:23:40;;;;;;;11.20;10.38;;;7.60;83.30;;;;;;5279544;28;20067;-77
2021/05/20 00:26:13;;;;;;;11.60;10.70;;;7.50;83.10;;;;;;5279456;28;20136;-77
2021/05/20 00:28:49;;;;;;;11.68;10.75;;;7.50;83.40;;;;;;5280763;28;20082;-77
2021/05/20 00:31:21;;;;;;;11.55;10.65;;;7.50;83.10;;;;;;5277910;28;20044;-77
2021/05/20 00:33:53;;;;;;;11.90;10.77;;;7.50;82.90;;;;;;5279956;28;20505;-76
2021/05/20 00:36:24;;;;;;;12.27;11.27;;;7.50;83.00;;;;;;5278340;28;20058;-76
2021/05/20 00:38:57;;;;;;;11.63;10.73;;;7.50;83.20;;;;;;5280300;28;20052;-76
2021/05/20 00:41:29;;;;;;;11.95;10.90;;;7.50;83.40;;;;;;5279384;28;20031;-76
2021/05/20 00:44:01;;;;;;;11.40;10.50;;;7.40;83.30;;;;;;5272953;28;20047;-75
2021/05/20 00:46:33;;;;;;;11.68;10.77;;;7.40;83.50;;;;;;5276585;28;20043;-75
2021/05/20 00:49:10;;;;;;;11.23;10.43;;;7.40;83.60;;;;;;5280439;28;20039;-76
2021/05/20 00:51:45;;;;;;;11.10;10.30;;;7.40;83.60;;;;;;5279414;28;20097;-76
2021/05/20 00:54:17;;;;;;;11.43;10.40;;;7.40;83.40;;;;;;5280263;28;20155;-77
2021/05/20 00:56:49;;;;;;;11.00;10.20;;;7.40;83.50;;;;;;5279805;28;20092;-76
2021/05/20 00:59:23;;;;;;;11.80;10.80;;;7.40;83.30;;;;;;5279833;28;20476;-77
2021/05/20 01:01:56;;;;;;;11.45;10.60;;;7.40;83.40;;;;;;5282744;28;20073;-77
2021/05/20 01:04:28;;;;;;;11.10;10.30;;;7.40;84.30;;;;;;5282845;28;20043;-77
2021/05/20 01:07:00;;;;;;;11.20;10.30;;;7.40;83.40;;;;;;5281634;28;20063;-77
2021/05/20 01:09:35;;;;;;;11.50;10.50;;;7.40;83.70;;;;;;5279307;28;20048;-76
2021/05/20 01:12:07;;;;;;;11.30;10.50;;;7.40;83.60;;;;;;5281989;28;20047;-74
2021/05/20 01:14:42;;;;;;;11.85;10.95;;;7.40;83.40;;;;;;5283028;28;20047;-74
2021/05/20 01:17:14;;;;;;;11.95;11.05;;;7.50;83.20;;;;;;5283551;28;20043;-75
2021/05/20 01:19:47;;;;;;;11.30;10.35;;;7.40;83.50;;;;;;5284318;28;20040;-75
2021/05/20 01:22:19;;;;;;;11.77;10.75;;;7.40;83.30;;;;;;5281212;27;20542;-74
2021/05/20 01:24:52;;;;;;;11.50;10.60;;;7.40;83.50;;;;;;5282432;28;20617;-75
2021/05/20 01:27:24;;;;;;;11.60;10.70;;;7.50;83.40;;;;;;5282303;28;20043;-74
2021/05/20 01:29:56;;;;;;;11.85;10.95;;;7.40;83.20;;;;;;5281012;28;20556;-74
2021/05/20 01:32:28;;;;;;;15.48;11.10;;;7.50;83.50;;;;;;5278818;28;20093;-74
2021/05/20 01:34:59;;;;;;;11.68;10.77;;;7.40;83.40;;;;;;5281964;28;20080;-75
2021/05/20 01:37:31;;;;;;;11.70;10.80;;;7.40;83.60;;;;;;5283161;28;20055;-74
2021/05/20 01:40:04;;;;;;;11.40;10.50;;;7.40;83.20;;;;;;5278850;28;20027;-75
2021/05/20 01:42:39;;;;;;;11.20;10.27;;;7.50;83.40;;;;;;5282284;28;20533;-74
2021/05/20 01:45:11;;;;;;;11.43;10.52;;;7.50;83.70;;;;;;5279141;28;20093;-73
2021/05/20 01:47:42;;;;;;;11.43;10.63;;;7.40;83.50;;;;;;5282250;28;20035;-74
2021/05/20 01:50:14;;;;;;;11.68;10.77;;;7.40;83.50;;;;;;5280251;28;20510;-72
2021/05/20 01:52:46;;;;;;;11.48;10.57;;;7.40;83.30;;;;;;5282690;28;20035;-73
2021/05/20 01:55:18;;;;;;;11.13;10.30;;;7.40;83.20;;;;;;5280881;27;20160;-73
2021/05/20 01:57:50;;;;;;;11.70;10.80;;;7.40;83.50;;;;;;5279790;28;20035;-74
2021/05/20 02:00:25;;;;;;;11.40;10.60;;;7.40;83.50;;;;;;5282454;28;20529;-74
2021/05/20 02:02:57;;;;;;;11.55;10.75;;;7.40;83.30;;;;;;5283567;28;20054;-74
2021/05/20 02:05:29;;;;;;;11.57;10.68;;;7.40;83.30;;;;;;5283287;28;20047;-74
2021/05/20 02:08:01;;;;;;;11.35;10.55;;;7.40;83.70;;;;;;5282585;28;20031;-75
2021/05/20 02:10:33;;;;;;;11.32;10.50;;;7.40;83.50;;;;;;5281100;28;20055;-75
2021/05/20 02:13:08;;;;;;;11.68;10.77;;;7.40;83.20;;;;;;5282847;28;20035;-75
2021/05/20 02:15:40;;;;;;;11.35;10.55;;;7.50;83.40;;;;;;5275123;28;20505;-74
2021/05/20 02:18:12;;;;;;;11.57;10.77;;;7.40;83.10;;;;;;5283467;28;20043;-75
2021/05/20 02:20:45;;;;;;;12.07;11.07;;;7.40;83.60;;;;;;5281272;28;20091;-74
2021/05/20 02:23:17;;;;;;;11.68;10.88;;;7.40;83.60;;;;;;5279461;28;20043;-74
2021/05/20 02:25:49;;;;;;;11.65;10.75;;;7.40;83.60;;;;;;5281024;28;20151;-74
2021/05/20 02:28:21;;;;;;;12.07;11.07;;;7.40;83.80;;;;;;5281709;28;20096;-74
2021/05/20 02:30:53;;;;;;;11.50;10.70;;;7.40;84.10;;;;;;5281526;27;20039;-74
2021/05/20 02:33:25;;;;;;;11.52;10.63;;;7.40;84.00;;;;;;5276909;28;20068;-75
2021/05/20 02:35:57;;;;;;;12.00;11.00;;;7.40;84.00;;;;;;5282313;28;20566;-74
2021/05/20 02:38:29;;;;;;;11.68;10.77;;;7.40;84.00;;;;;;5276357;28;20043;-75
2021/05/20 02:41:01;;;;;;;11.80;10.90;;;7.30;84.20;;;;;;5279922;27;20059;-74
2021/05/20 02:43:33;;;;;;;11.88;10.98;;;7.40;84.20;;;;;;5281717;28;20542;-75
2021/05/20 02:46:05;;;;;;;12.07;11.10;;;7.40;84.00;;;;;;5280253;28;20059;-75
2021/05/20 02:48:37;;;;;;;11.95;10.90;;;7.40;84.40;;;;;;5281942;28;20445;-75
2021/05/20 02:51:09;;;;;;;11.88;10.98;;;7.40;84.60;;;;;;5279932;28;20043;-75
2021/05/20 02:53:41;;;;;;;12.10;11.10;;;7.40;84.50;;;;;;5282017;28;20063;-74
2021/05/20 02:56:13;;;;;;;12.00;11.10;;;7.30;84.30;;;;;;5280991;28;20040;-75
2021/05/20 02:58:44;;;;;;;12.02;11.13;;;7.30;84.30;;;;;;5281100;28;20039;-74
2021/05/20 03:01:21;;;;;;;11.95;10.90;;;7.30;84.20;;;;;;5276809;28;20043;-74
2021/05/20 03:03:53;;;;;;;11.73;10.82;;;7.30;84.30;;;;;;5280712;28;20032;-74
2021/05/20 03:06:25;;;;;;;11.55;10.65;;;7.30;84.20;;;;;;5280514;28;20043;-75
2021/05/20 03:08:59;;;;;;;11.60;10.70;;;7.30;83.80;;;;;;5281376;28;20042;-74
2021/05/20 03:11:32;;;;;;;11.75;10.85;;;7.40;84.10;;;;;;5279812;28;20051;-74
2021/05/20 03:14:04;;;;;;;11.85;10.95;;;7.40;84.20;;;;;;5280924;28;20035;-74
2021/05/20 03:16:36;;;;;;;12.18;11.20;;;7.30;84.00;;;;;;5279735;28;20618;-75
2021/05/20 03:19:08;;;;;;;12.02;11.00;;;7.30;84.10;;;;;;5281048;28;20089;-74
2021/05/20 03:21:40;;;;;;;11.93;11.02;;;7.40;84.50;;;;;;5277729;28;20040;-74
2021/05/20 03:24:17;;;;;;;11.82;10.82;;;7.30;84.50;;;;;;5279412;28;20082;-74
2021/05/20 03:26:49;;;;;;;12.10;11.20;;;7.30;84.20;;;;;;5280381;28;20054;-75
2021/05/20 03:29:21;;;;;;;11.88;10.98;;;7.30;84.50;;;;;;5278255;28;20040;-74
2021/05/20 03:31:52;;;;;;;11.55;10.60;;;7.30;84.40;;;;;;5280328;27;20044;-73
2021/05/20 03:34:24;;;;;;;11.98;11.07;;;7.30;84.20;;;;;;5281232;28;20962;-74
2021/05/20 03:36:56;;;;;;;11.80;10.90;;;7.30;84.10;;;;;;5280830;28;20048;-73
2021/05/20 03:39:29;;;;;;;11.70;10.90;;;7.30;84.10;;;;;;5280265;28;20571;-74
2021/05/20 03:42:02;;;;;;;12.10;10.98;;;7.30;84.50;;;;;;5278363;28;20445;-74
2021/05/20 03:44:34;;;;;;;11.80;10.90;;;7.30;84.30;;;;;;5283620;27;20096;-74
2021/05/20 03:47:06;;;;;;;11.63;10.65;;;7.40;84.20;;;;;;5279663;28;20306;-75
2021/05/20 03:49:38;;;;;;;11.85;10.95;;;7.30;84.30;;;;;;5279507;28;20440;-74
2021/05/20 03:52:10;;;;;;;11.55;10.65;;;7.20;84.40;;;;;;5278604;28;20510;-75
2021/05/20 03:54:43;;;;;;;11.80;10.90;;;7.20;84.70;;;;;;5281153;28;20073;-74
2021/05/20 03:57:15;;;;;;;11.38;10.57;;;7.20;84.60;;;;;;5280712;28;20463;-75
2021/05/20 03:59:47;;;;;;;10.95;10.15;;;7.20;84.60;;;;;;5280334;28;20506;-74
2021/05/20 04:02:19;;;;;;;10.85;10.02;;;7.10;84.50;;;;;;5279724;28;20400;-75
2021/05/20 04:04:51;;;;;;;11.18;10.27;;;7.20;84.40;;;;;;5279779;28;20104;-75
2021/05/20 04:07:22;;;;;;;11.10;10.30;;;7.20;83.30;;;;;;5279190;28;20044;-74
2021/05/20 04:09:55;;;;;;;10.85;10.05;;;7.10;83.10;;;;;;5281078;28;20195;-75
2021/05/20 04:12:27;;;;;;;11.00;10.20;;;7.10;82.40;;;;;;5279783;28;20046;-75
2021/05/20 04:14:59;;;;;;;10.68;9.88;;;7.00;82.30;;;;;;5263744;28;20609;-75
2021/05/20 04:17:30;;;;;;;10.73;9.93;;;7.10;82.00;;;;;;5279995;28;20293;-74
2021/05/20 04:20:03;;;;;;;10.60;9.80;;;7.00;81.50;;;;;;5279131;28;20118;-76
2021/05/20 04:22:35;;;;;;;10.23;9.48;;;6.90;81.80;;;;;;5280037;28;20139;-74
2021/05/20 04:25:08;;;;;;;10.70;9.90;;;6.90;81.60;;;;;;5279475;28;20552;-75
2021/05/20 04:27:40;;;;;;;10.40;9.60;;;6.90;81.50;;;;;;5280710;28;20048;-75
2021/05/20 04:30:12;;;;;;;10.57;9.77;;;7.00;82.00;;;;;;5280520;28;20039;-73
2021/05/20 04:32:44;;;;;;;10.80;10.00;;;7.00;80.80;;;;;;5278788;28;20529;-75
2021/05/20 04:35:16;;;;;;;10.95;10.15;;;6.90;81.60;;;;;;5283262;28;20052;-75
2021/05/20 04:37:48;;;;;;;10.80;10.00;;;6.90;81.30;;;;;;5284866;28;20127;-75
2021/05/20 04:40:23;;;;;;;10.90;10.10;;;6.90;81.60;;;;;;5283487;28;20113;-74
2021/05/20 04:42:55;;;;;;;11.10;10.30;;;6.90;82.00;;;;;;5285225;28;20391;-75
2021/05/20 04:45:27;;;;;;;10.68;9.88;;;6.90;82.00;;;;;;5280036;28;20078;-73
2021/05/20 04:47:59;;;;;;;10.50;9.70;;;7.00;82.00;;;;;;5284414;28;20594;-73
2021/05/20 04:50:31;;;;;;;10.38;9.57;;;7.00;81.90;;;;;;5281704;27;20073;-74
2021/05/20 04:53:03;;;;;;;10.70;9.80;;;7.00;81.80;;;;;;5279448;28;20066;-73
2021/05/20 04:55:35;;;;;;;10.60;9.80;;;7.00;82.00;;;;;;5282238;28;20063;-73
2021/05/20 04:58:07;;;;;;;9.98;9.27;;;6.90;81.30;;;;;;5280352;28;20519;-72
2021/05/20 05:00:39;;;;;;;9.90;9.20;;;6.80;81.60;;;;;;5281333;28;20760;-72
2021/05/20 05:03:11;;;;;;;9.70;9.00;;;6.80;80.30;;;;;;5265024;28;20043;-75
2021/05/20 05:05:43;;;;;;;10.10;9.40;;;6.80;81.40;;;;;;5282619;28;20044;-73
2021/05/20 05:08:15;;;;;;;9.70;9.00;;;6.80;81.40;;;;;;5282474;28;20071;-73
2021/05/20 05:10:47;;;;;;;9.88;9.18;;;6.70;80.90;;;;;;5271633;28;20520;-73
2021/05/20 05:13:19;;;;;;;10.40;9.50;;;6.70;82.00;;;;;;5282414;28;20052;-73
2021/05/20 05:15:51;;;;;;;9.73;9.02;;;6.70;81.70;;;;;;5280410;28;20046;-73
2021/05/20 05:18:23;;;;;;;9.80;9.00;;;6.60;80.60;;;;;;5283651;28;20031;-74
2021/05/20 05:20:55;;;;;;;9.68;8.98;;;6.60;81.80;;;;;;5277831;28;20051;-73
2021/05/20 05:23:28;;;;;;;9.95;9.25;;;6.50;81.30;;;;;;5279087;28;20472;-74
2021/05/20 05:26:00;;;;;;;10.10;9.40;;;6.50;81.40;;;;;;5280091;28;20040;-73
2021/05/20 05:28:32;;;;;;;10.20;9.40;;;6.50;82.20;;;;;;5280428;28;20088;-74
2021/05/20 05:31:04;;;;;;;10.10;9.32;;;6.50;82.00;;;;;;5277162;28;20038;-73
2021/05/20 05:33:36;;;;;;;9.70;9.00;;;6.60;82.30;;;;;;5280614;28;20042;-75
2021/05/20 05:36:08;;;;;;;9.30;8.60;;;6.50;81.60;;;;;;5275664;28;20053;-73
2021/05/20 05:38:40;;;;;;;9.48;8.77;;;6.60;81.80;;;;;;5281181;28;20044;-73
2021/05/20 05:41:12;;;;;;;10.05;9.25;;;6.50;81.70;;;;;;5282739;28;20070;-73
2021/05/20 05:43:44;;;;;;;9.40;8.70;;;6.60;82.20;;;;;;5283286;28;20093;-72
2021/05/20 05:46:16;;;;;;;9.40;8.60;;;6.60;81.60;;;;;;5282005;28;20177;-72
2021/05/20 05:48:49;;;;;;;10.05;9.10;;;6.60;82.20;;;;;;5282892;28;20048;-73
2021/05/20 05:51:22;;;;;;;9.90;9.10;;;6.60;81.50;;;;;;5281109;28;20043;-73
2021/05/20 05:53:54;;;;;;;9.65;8.95;;;6.60;82.00;;;;;;5282663;28;20168;-72
2021/05/20 05:56:26;;;;;;;9.68;8.98;;;6.70;81.70;;;;;;5284142;28;20511;-73
2021/05/20 05:59:18;;;;;;;9.55;8.85;;;6.60;81.70;;;;;;5283942;28;20115;-74
2021/05/20 06:01:52;;;;;;;9.43;8.73;;;6.70;81.40;;;;;;5282938;28;20054;-73
2021/05/20 06:04:23;;;;;;;9.38;8.68;;;6.70;81.60;;;;;;5300319;27;20044;-73
2021/05/20 06:06:56;;;;;;;9.70;9.00;;;6.80;81.20;;;;;;5283881;28;20139;-73
2021/05/20 06:09:29;;;;;;;8.73;8.02;;;6.80;81.60;;;;;;5284208;28;20051;-73
2021/05/20 06:12:01;;;;;;;9.10;8.40;;;6.80;80.60;;;;;;5283426;28;20406;-73
2021/05/20 06:14:36;;;;;;;9.00;8.30;;;6.80;81.90;;;;;;5284212;28;20043;-73
2021/05/20 06:17:08;;;;;;;9.00;8.30;;;7.00;82.20;;;;;;5280652;28;20043;-72
2021/05/20 06:19:40;;;;;;;9.10;8.40;;;7.20;82.50;;;;;;5279261;28;20043;-73
2021/05/20 06:22:12;;;;;;;9.10;8.40;;;7.30;82.10;;;;;;5281090;28;20051;-73
2021/05/20 06:24:45;;;;;;;10.30;9.40;;;7.30;81.40;;;;;;5282160;28;20114;-74
2021/05/20 06:27:17;;;;;;;11.88;10.88;;;7.40;81.90;;;;;;5282685;28;20047;-73
2021/05/20 06:29:48;;;;;;;10.90;10.00;;;7.50;82.60;;;;;;5281981;28;20040;-72
2021/05/20 06:32:21;;;;;;;10.57;9.68;;;7.60;82.70;;;;;;5282003;28;20043;-74
2021/05/20 06:34:52;;;;;;;9.80;9.00;;;7.70;82.00;;;;;;5283196;28;20042;-74
2021/05/20 06:37:24;;;;;;;9.77;8.98;;;7.70;81.50;;;;;;5281911;28;20062;-73
2021/05/20 06:39:57;;;;;;;9.10;8.40;;;7.70;80.60;;;;;;5283515;28;20050;-74
2021/05/20 06:42:29;;;;;;;9.75;8.95;;;7.70;80.70;;;;;;5282615;28;20396;-74
2021/05/20 06:45:01;;;;;;;9.43;8.68;;;7.80;81.70;;;;;;5282977;28;20086;-74
2021/05/20 06:47:33;;;;;;;11.50;10.40;;;7.80;82.10;;;;;;5283482;28;20104;-74
2021/05/20 06:50:08;;;;;;;12.80;11.65;;;7.80;81.00;;;;;;5283337;28;20160;-73
2021/05/20 06:52:40;;;;;;;10.20;9.40;;;8.00;83.20;;;;;;5263363;28;20083;-74
2021/05/20 06:55:12;;;;;;;9.77;9.05;;;8.00;82.00;;;;;;5283001;27;20059;-74
2021/05/20 07:00:37;;;;;;;9.30;8.60;;;8.00;78.70;;;;;;5301667;27;20044;-74
2021/05/20 07:03:15;;;;;;;9.30;8.60;;;8.20;81.10;;;;;;5305053;27;20043;-73
2021/05/20 07:05:49;;;;;;;9.10;8.40;;;8.20;79.90;;;;;;5304256;27;20127;-74
2021/05/20 07:08:22;;;;;;;9.27;8.57;;;8.30;80.30;;;;;;5304589;27;20043;-74
2021/05/20 07:10:57;;;;;;;9.60;8.90;;;8.20;79.60;;;;;;5302807;27;20100;-74
2021/05/20 07:13:29;;;;;;;9.60;8.90;;;8.20;79.50;;;;;;5302957;27;20047;-75
2021/05/20 07:16:01;;;;;;;9.40;8.70;;;8.20;80.00;;;;;;5302003;27;20430;-73
2021/05/20 07:18:33;;;;;;;9.10;8.40;;;8.20;78.50;;;;;;5303848;27;20422;-74
2021/05/20 07:21:05;;;;;;;9.10;8.40;;;8.20;78.80;;;;;;5302705;27;20130;-73
2021/05/20 07:23:37;;;;;;;9.52;8.70;;;8.20;79.30;;;;;;5304350;27;20043;-74
2021/05/20 07:26:09;;;;;;;9.65;8.95;;;8.30;80.10;;;;;;5301427;27;20046;-74
2021/05/20 07:28:41;;;;;;;9.23;8.52;;;8.30;79.90;;;;;;5303840;27;20395;-74
2021/05/20 07:31:13;;;;;;;9.18;8.48;;;8.30;77.90;;;;;;5302652;27;20047;-74
2021/05/20 07:33:45;;;;;;;9.55;8.80;;;8.30;78.30;;;;;;5304262;27;20579;-74
2021/05/20 07:36:17;;;;;;;8.85;8.15;;;8.20;78.70;;;;;;5302409;27;20123;-74
2021/05/20 07:38:49;;;;;;;9.60;8.88;;;8.20;79.10;;;;;;5303852;27;20096;-74
2021/05/20 07:41:27;;;;;;;9.82;8.93;;;8.30;80.00;;;;;;5291310;27;20412;-74
2021/05/20 07:44:00;;;;;;;9.82;9.02;;;8.40;79.30;;;;;;5282788;28;20456;-74
2021/05/20 07:46:33;;;;;;;9.68;8.90;;;8.50;80.10;;;;;;5280626;28;20754;-74
2021/05/20 07:49:05;;;;;;;9.68;8.98;;;8.60;81.30;;;;;;5281778;28;20043;-74
2021/05/20 07:51:39;;;;;;;9.95;9.25;;;8.70;80.00;;;;;;5279181;28;20043;-74
2021/05/20 07:54:11;;;;;;;10.02;9.18;;;8.70;79.00;;;;;;5298215;27;20039;-74
2021/05/20 07:56:44;;;;;;;10.27;9.40;;;8.80;80.70;;;;;;5281435;28;20048;-74
2021/05/20 07:59:16;;;;;;;10.20;9.30;;;8.80;79.60;;;;;;5282658;28;20445;-74
2021/05/20 08:04:40;;;;;;;;;;;8.90;78.90;;;;;;5282991;28;20040;-73
2021/05/20 08:12:45;;;;;;;9.93;9.13;;;9.20;78.70;;;;;;5285776;28;20498;-74
2021/05/20 08:15:17;;;;;;;9.85;9.15;;;9.30;79.80;;;;;;5285084;28;20580;-74
2021/05/20 08:17:49;;;;;;;10.55;9.63;;;9.40;78.50;;;;;;5285403;28;20051;-74
2021/05/20 08:20:21;;;;;;;10.20;9.40;;;9.50;78.70;;;;;;5291823;27;20032;-74
2021/05/20 08:22:53;;;;;;;9.63;8.90;;;9.50;79.70;;;;;;5285463;28;20723;-74
2021/05/20 08:25:25;;;;;;;10.00;9.23;;;9.60;80.10;;;;;;5293280;27;20660;-74
2021/05/20 08:27:58;;;;;;;10.23;9.32;;;9.70;79.00;;;;;;5286184;28;20780;-74
2021/05/20 08:30:30;;;;;;;10.10;9.30;;;9.70;76.10;;;;;;5285101;28;20391;-73
2021/05/20 08:33:02;;;;;;;9.90;9.15;;;9.80;78.20;;;;;;5283462;28;20064;-74
2021/05/20 08:35:34;;;;;;;9.80;9.10;;;9.80;78.30;;;;;;5284786;28;20105;-74
2021/05/20 08:38:07;;;;;;;9.80;9.10;;;9.90;76.90;;;;;;5285504;28;20036;-74
2021/05/20 08:40:39;;;;;;;9.80;9.10;;;9.90;73.50;;;;;;5283621;28;20105;-74
2021/05/20 08:43:11;;;;;;;10.73;9.93;;;9.90;76.10;;;;;;5285070;28;20747;-74
2021/05/20 08:45:43;;;;;;;10.30;9.55;;;10.00;75.90;;;;;;5285095;28;20047;-74
2021/05/20 08:48:15;;;;;;;13.48;12.38;;;10.20;75.70;;;;;;5283616;28;20112;-74
2021/05/20 08:50:47;;;;;;;11.73;10.82;;;10.30;78.40;;;;;;5281993;28;20048;-73
2021/05/20 08:53:19;;;;;;;10.73;9.93;;;10.40;75.00;;;;;;5285513;28;20047;-73
2021/05/20 08:55:51;;;;;;;10.57;9.77;;;10.50;75.50;;;;;;5284859;28;20054;-73
2021/05/20 08:58:26;;;;;;;11.30;10.40;;;10.50;77.80;;;;;;5285846;28;20063;-74
2021/05/20 09:00:57;;;;;;;11.40;10.48;;;10.60;77.10;;;;;;5284026;27;20447;-73
2021/05/20 09:03:29;;;;;;;10.80;10.00;;;10.70;77.20;;;;;;5284824;28;20048;-74
2021/05/20 09:06:05;;;;;;;10.02;9.32;;;10.80;76.00;;;;;;5283432;27;20044;-74
2021/05/20 09:08:41;;;;;;;9.70;9.00;;;10.80;72.20;;;;;;5285382;28;20104;-73
2021/05/20 09:11:23;;;;;;;9.88;9.18;;;10.90;74.10;;;;;;5284044;28;20530;-74
2021/05/20 09:14:04;;;;;;;9.88;9.18;;;11.10;73.10;;;;;;5285265;28;20046;-74
2021/05/20 09:16:36;;;;;;;9.70;9.00;;;11.20;75.20;;;;;;5273112;28;20044;-74
2021/05/20 09:19:21;;;;;;;10.07;9.20;;;11.20;70.90;;;;;;5285530;28;20036;-74
2021/05/20 09:22:13;;;;;;;10.20;9.40;;;11.20;71.70;;;;;;5283394;28;20543;-74
2021/05/20 11:33:56;;;;;;;12.32;11.43;;;14.60;53.90;;;;;;5212104;28;20087;-75
2021/05/20 11:36:42;;;;;;;12.43;11.52;;;14.30;53.70;;;;;;5210196;28;20041;-76
2021/05/20 11:39:17;;;;;;;12.15;11.35;;;14.50;50.30;;;;;;5209579;28;20055;-76
2021/05/20 11:41:51;;;;;;;12.40;11.50;;;14.70;53.60;;;;;;5212573;28;20140;-76
2021/05/20 11:44:26;;;;;;;12.15;11.25;;;14.90;53.20;;;;;;5191421;28;20996;-75
2021/05/20 11:47:09;;;;;;;12.13;11.23;;;15.00;50.80;;;;;;5209597;28;20044;-77
2021/05/20 11:49:42;;;;;;;12.32;11.43;;;15.00;47.70;;;;;;5200010;28;20049;-77
2021/05/20 11:52:15;;;;;;;11.65;10.85;;;14.70;52.60;;;;;;5178168;28;20036;-75
2021/05/20 11:54:49;;;;;;;11.88;11.07;;;14.60;50.20;;;;;;5204237;28;20056;-75
2021/05/20 11:57:23;;;;;;;11.55;10.75;;;14.40;51.30;;;;;;5201042;28;20564;-75
2021/05/20 11:59:56;;;;;;;12.00;11.10;;;14.20;54.20;;;;;;5190782;28;20064;-75
2021/05/20 12:02:30;;;;;;;12.30;11.40;;;14.40;48.90;;;;;;5190050;28;20042;-76
2021/05/20 12:05:06;;;;;;;11.70;10.80;;;14.60;52.60;;;;;;5189396;28;20050;-75
2021/05/20 12:07:40;;;;;;;12.40;11.50;;;14.70;52.50;;;;;;5190799;28;20042;-75
2021/05/20 12:10:22;;;;;;;12.65;11.75;;;15.10;50.80;;;;;;5187481;28;20057;-74
2021/05/20 12:13:02;;;;;;;12.48;11.57;;;15.20;49.70;;;;;;5190807;28;20516;-75
2021/05/20 12:16:17;;;;;;;12.88;11.95;;;15.50;51.70;;;;;;5189899;28;20095;-74
2021/05/20 12:18:58;;;;;;;13.35;12.45;;;15.50;48.80;;;;;;5206138;28;20539;-71
2021/05/20 12:21:30;;;;;;;13.68;12.73;;;16.00;50.60;;;;;;5203001;28;20048;-74
2021/05/20 12:24:03;;;;;;;13.32;12.43;;;16.40;47.10;;;;;;5194585;28;20095;-73
2021/05/20 12:26:37;;;;;;;12.98;12.07;;;16.70;46.80;;;;;;5210238;28;20037;-73
2021/05/20 12:29:09;;;;;;;13.10;12.20;;;16.50;45.20;;;;;;5209471;28;20037;-72
2021/05/20 12:31:41;;;;;;;13.05;12.15;;;16.20;42.70;;;;;;5194195;28;20069;-73
2021/05/20 12:34:18;;;;;;;13.25;12.35;;;16.00;44.10;;;;;;5190562;28;20100;-72
2021/05/20 12:36:50;;;;;;;13.27;12.38;;;16.00;45.60;;;;;;5189206;28;20164;-73
2021/05/20 12:39:22;;;;;;;13.57;12.68;;;16.10;48.40;;;;;;5188476;28;20507;-73
2021/05/20 12:41:54;;;;;;;12.82;11.93;;;16.00;47.30;;;;;;5203878;28;20048;-72
2021/05/20 12:44:26;;;;;;;12.85;11.95;;;15.70;45.60;;;;;;5207444;28;20044;-72
2021/05/20 12:47:14;;;;;;;12.50;11.60;;;15.50;46.20;;;;;;5226796;28;20648;-72
2021/05/20 12:50:05;;;;;;;12.40;11.50;;;15.40;44.90;;;;;;5213090;28;21603;-72
2021/05/20 12:52:53;;;;;;;;;;;15.20;45.50;;;;;;5228330;28;20416;-72
2021/05/20 12:55:35;;;;;;;12.85;11.95;;;15.00;44.70;;;;;;5229666;28;20011;-72
2021/05/20 12:58:08;;;;;;;13.55;12.55;;;15.30;46.20;;;;;;5227736;28;20108;-71
2021/05/20 13:00:58;;;;;;;13.38;12.48;;;15.70;48.30;;;;;;5225850;28;20091;-72
2021/05/20 13:03:43;;;;;;;13.98;12.98;;;15.90;46.50;;;;;;5228472;28;20079;-70
2021/05/20 13:06:41;;;;;;;13.55;12.65;;;16.30;44.10;;;;;;5229401;28;20071;-72
2021/05/20 13:09:15;;;;;;;13.80;12.80;;;16.50;40.40;;;;;;5226407;28;20057;-71
2021/05/20 13:11:58;;;;;;;14.27;13.27;;;16.80;44.10;;;;;;5226285;28;20129;-71
2021/05/20 13:14:40;;;;;;;14.15;13.15;;;17.00;44.80;;;;;;5231247;28;20620;-70
2021/05/20 13:17:48;;;;;;;13.82;12.82;;;17.10;42.70;;;;;;5227696;28;20917;-71
2021/05/20 13:23:28;;;;;;;13.25;12.25;;;16.70;46.00;;;;;;5229473;28;20047;-70
2021/05/20 13:26:06;;;;;;;12.93;12.02;;;16.60;46.30;;;;;;5228174;28;20076;-69
2021/05/20 13:28:38;;;;;;;13.00;12.10;;;16.10;44.20;;;;;;5217611;28;20407;-70
2021/05/20 13:31:11;;;;;;;12.57;11.68;;;15.80;43.40;;;;;;5227444;28;20514;-69
2021/05/20 13:33:45;;;;;;;12.65;11.75;;;15.60;45.60;;;;;;5227861;28;20411;-70
2021/05/20 13:36:18;;;;;;;12.88;11.98;;;15.40;45.30;;;;;;5228754;28;20114;-70
2021/05/20 13:38:53;;;;;;;12.88;11.98;;;15.10;44.80;;;;;;5231024;28;20033;-70
2021/05/20 13:41:25;;;;;;;12.73;11.82;;;15.10;45.20;;;;;;5226874;28;20049;-69
2021/05/20 13:43:57;;;;;;;13.10;12.00;;;15.10;46.40;;;;;;5229380;28;20053;-70
2021/05/20 13:46:29;;;;;;;12.75;11.75;;;15.10;50.90;;;;;;5230712;28;20580;-70
2021/05/20 13:49:01;;;;;;;12.77;11.77;;;15.10;48.00;;;;;;5231989;28;20174;-70
2021/05/20 13:51:55;;;;;;;12.35;11.45;;;15.20;46.60;;;;;;5214816;28;20435;-70
2021/05/20 13:54:26;;;;;;;12.40;11.50;;;15.20;49.40;;;;;;5228621;28;20535;-72
2021/05/20 13:57:00;;;;;;;12.90;11.90;;;15.50;48.80;;;;;;5227160;28;20562;-70
2021/05/20 13:59:32;;;;;;;12.18;11.27;;;15.50;46.40;;;;;;5232187;28;20494;-71
2021/05/20 14:02:06;;;;;;;13.00;11.90;;;15.50;48.70;;;;;;5227101;28;20081;-69
2021/05/20 14:04:40;;;;;;;12.93;12.02;;;15.20;43.80;;;;;;5214598;28;20090;-69
2021/05/20 14:07:13;;;;;;;12.77;11.88;;;15.20;48.60;;;;;;5230527;28;20045;-69
2021/05/20 14:09:47;;;;;;;13.13;12.10;;;15.40;46.00;;;;;;5231219;28;20351;-69
2021/05/20 14:12:20;;;;;;;12.98;12.07;;;15.50;45.70;;;;;;5229853;28;20045;-70
2021/05/20 14:14:53;;;;;;;13.18;12.27;;;15.60;44.10;;;;;;5231639;28;20131;-70
2021/05/20 14:17:25;;;;;;;12.95;12.05;;;15.60;48.10;;;;;;5231404;28;20052;-70
2021/05/20 14:20:01;;;;;;;13.10;12.20;;;15.50;45.40;;;;;;5235906;28;20041;-69
2021/05/20 14:22:33;;;;;;;13.00;12.10;;;15.40;44.90;;;;;;5234207;28;20076;-70
2021/05/20 14:25:05;;;;;;;13.00;12.05;;;15.50;45.70;;;;;;5235923;28;20094;-70
2021/05/20 14:27:37;;;;;;;13.23;12.32;;;15.50;43.80;;;;;;5234402;28;20041;-70
2021/05/20 14:30:10;;;;;;;13.55;12.63;;;15.90;43.60;;;;;;5231771;28;20054;-70
2021/05/20 14:32:46;;;;;;;13.45;12.55;;;16.20;48.10;;;;;;5219488;28;20098;-70
2021/05/20 14:35:18;;;;;;;13.73;12.75;;;16.40;40.90;;;;;;5203556;28;20407;-72
2021/05/20 14:37:50;;;;;;;13.38;12.48;;;16.80;42.40;;;;;;5232163;28;20029;-69
2021/05/20 14:40:21;;;;;;;13.40;12.35;;;16.90;38.60;;;;;;5234200;28;25335;-71
2021/05/20 14:42:53;;;;;;;13.75;12.80;;;17.20;41.20;;;;;;5231622;28;20074;-69
2021/05/20 14:45:27;;;;;;;14.25;13.15;;;17.40;39.10;;;;;;5233027;28;20110;-71
2021/05/20 14:47:59;;;;;;;14.38;13.38;;;17.60;38.80;;;;;;5232893;28;20519;-71
2021/05/20 14:50:36;;;;;;;14.25;13.25;;;17.90;42.60;;;;;;5230626;28;20124;-70
2021/05/20 14:53:14;;;;;;;14.27;13.07;;;18.00;38.00;;;;;;5232121;28;20049;-69
2021/05/20 15:07:15;;;;;;;14.45;13.40;;;19.10;42.40;;;;;;5214189;28;20055;-70
2021/05/20 15:15:06;;;;;;;15.10;13.93;;;19.80;39.30;;;;;;5230957;28;20118;-72
2021/05/20 15:17:49;;;;;;;14.85;13.85;;;19.90;35.60;;;;;;5230892;28;20046;-72
2021/05/20 15:20:21;;;;;;;15.60;14.50;;;20.40;36.00;;;;;;5211779;28;20748;-71
2021/05/20 15:22:57;;;;;;;15.05;14.05;;;20.80;35.00;;;;;;5214383;28;20067;-72
2021/05/20 15:25:30;;;;;;;15.45;14.35;;;21.00;33.20;;;;;;5232693;28;20052;-72
2021/05/20 15:28:02;;;;;;;15.60;14.50;;;21.00;34.40;;;;;;5232633;28;20549;-72
2021/05/20 15:30:34;;;;;;;15.93;14.82;;;21.30;32.00;;;;;;5232137;28;20114;-72
2021/05/20 15:33:06;;;;;;;15.38;14.27;;;21.80;37.10;;;;;;5219648;28;20044;-72
2021/05/20 15:35:38;;;;;;;16.15;15.05;;;22.20;35.50;;;;;;5230079;28;20486;-72
2021/05/20 15:38:10;;;;;;;16.15;15.05;;;22.50;33.90;;;;;;5218272;28;20416;-72
2021/05/20 15:40:44;;;;;;;17.10;15.90;;;22.90;29.60;;;;;;5198094;28;20037;-72
2021/05/20 15:43:17;;;;;;;16.27;15.13;;;23.10;32.30;;;;;;5231010;28;21063;-72
2021/05/20 15:45:58;;;;;;;16.33;15.23;;;23.20;31.90;;;;;;5230539;28;20766;-72
2021/05/20 15:51:28;;;;;;;17.08;15.88;;;23.70;31.80;;;;;;5196098;28;20109;-73
2021/05/20 15:54:02;;;;;;;17.60;16.40;;;24.10;33.20;;;;;;5213184;28;20041;-73